sensor_id;sensor_type;location;lat;lon;timestamp;pressure;altitude;pressure_sealevel;temperature;humidity
70902;BME280;58548;47.210;8.618;2024-01-27T00:00:23;95613.25;;;17.73;38.06
70902;BME280;58548;47.210;8.618;2024-01-27T00:02:52;95603.00;;;17.57;37.65
70902;BME280;58548;47.210;8.618;2024-01-27T00:05:18;95586.47;;;17.41;38.10
70902;BME280;58548;47.210;8.618;2024-01-27T00:07:44;95620.50;;;17.58;38.27
70902;BME280;58548;47.210;8.618;2024-01-27T00:10:09;95614.34;;;17.51;38.38
70902;BME280;58548;47.210;8.618;2024-01-27T00:12:36;95623.34;;;17.56;38.05
70902;BME280;58548;47.210;8.618;2024-01-27T00:15:02;95601.47;;;17.34;38.25
70902;BME280;58548;47.210;8.618;2024-01-27T00:17:31;95613.06;;;17.40;37.81
70902;BME280;58548;47.210;8.618;2024-01-27T00:19:57;95636.06;;;17.46;38.15
70902;BME280;58548;47.210;8.618;2024-01-27T00:22:22;95622.78;;;17.32;37.90
70902;BME280;58548;47.210;8.618;2024-01-27T00:24:48;95644.38;;;17.43;37.34
70902;BME280;58548;47.210;8.618;2024-01-27T00:27:14;95640.28;;;17.33;37.61
70902;BME280;58548;47.210;8.618;2024-01-27T00:29:40;95652.41;;;17.28;37.06
70902;BME280;58548;47.210;8.618;2024-01-27T00:32:06;95652.72;;;17.18;37.72
70902;BME280;58548;47.210;8.618;2024-01-27T00:34:34;95633.97;;;17.06;38.07
70902;BME280;58548;47.210;8.618;2024-01-27T00:37:00;95631.16;;;17.08;37.61
70902;BME280;58548;47.210;8.618;2024-01-27T00:39:28;95652.31;;;17.14;37.74
70902;BME280;58548;47.210;8.618;2024-01-27T00:41:54;95644.59;;;17.13;36.99
70902;BME280;58548;47.210;8.618;2024-01-27T00:44:23;95609.69;;;16.89;37.12
70902;BME280;58548;47.210;8.618;2024-01-27T00:46:52;95669.44;;;17.25;36.44
70902;BME280;58548;47.210;8.618;2024-01-27T00:49:17;95664.72;;;17.14;36.96
70902;BME280;58548;47.210;8.618;2024-01-27T00:51:49;95670.41;;;17.17;37.05
70902;BME280;58548;47.210;8.618;2024-01-27T00:54:17;95677.50;;;17.17;37.43
70902;BME280;58548;47.210;8.618;2024-01-27T00:56:43;95664.25;;;17.10;37.52
70902;BME280;58548;47.210;8.618;2024-01-27T00:59:11;95655.28;;;17.05;37.95
70902;BME280;58548;47.210;8.618;2024-01-27T01:01:39;95662.81;;;17.08;37.47
70902;BME280;58548;47.210;8.618;2024-01-27T01:04:06;95674.25;;;17.15;37.75
70902;BME280;58548;47.210;8.618;2024-01-27T01:06:33;95648.31;;;16.97;37.59
70902;BME280;58548;47.210;8.618;2024-01-27T01:08:58;95676.81;;;17.08;37.36
70902;BME280;58548;47.210;8.618;2024-01-27T01:11:28;95679.34;;;16.95;37.90
70902;BME280;58548;47.210;8.618;2024-01-27T01:13:56;95673.38;;;16.86;37.71
70902;BME280;58548;47.210;8.618;2024-01-27T01:16:22;95692.34;;;16.96;37.23
70902;BME280;58548;47.210;8.618;2024-01-27T01:18:48;95672.63;;;16.92;37.83
70902;BME280;58548;47.210;8.618;2024-01-27T01:21:16;95687.53;;;17.00;37.83
70902;BME280;58548;47.210;8.618;2024-01-27T01:23:42;95686.28;;;16.96;37.43
70902;BME280;58548;47.210;8.618;2024-01-27T01:26:08;95692.97;;;16.98;38.04
70902;BME280;58548;47.210;8.618;2024-01-27T01:28:36;95693.63;;;17.00;38.03
70902;BME280;58548;47.210;8.618;2024-01-27T01:31:03;95688.47;;;16.92;37.26
70902;BME280;58548;47.210;8.618;2024-01-27T01:33:28;95692.34;;;16.96;37.70
70902;BME280;58548;47.210;8.618;2024-01-27T01:35:57;95692.28;;;16.89;36.72
70902;BME280;58548;47.210;8.618;2024-01-27T01:38:22;95696.75;;;16.89;37.11
70902;BME280;58548;47.210;8.618;2024-01-27T01:40:48;95678.41;;;16.81;37.27
70902;BME280;58548;47.210;8.618;2024-01-27T01:43:14;95688.94;;;16.81;37.96
70902;BME280;58548;47.210;8.618;2024-01-27T01:45:40;95669.16;;;16.70;37.89
70902;BME280;58548;47.210;8.618;2024-01-27T01:48:07;95711.38;;;16.92;38.08
70902;BME280;58548;47.210;8.618;2024-01-27T01:50:35;95704.28;;;16.92;37.53
70902;BME280;58548;47.210;8.618;2024-01-27T01:53:01;95687.31;;;16.80;37.87
70902;BME280;58548;47.210;8.618;2024-01-27T01:55:30;95703.28;;;16.93;37.78
70902;BME280;58548;47.210;8.618;2024-01-27T01:57:56;95675.59;;;16.82;38.13
70902;BME280;58548;47.210;8.618;2024-01-27T02:00:24;95694.00;;;16.97;37.97
70902;BME280;58548;47.210;8.618;2024-01-27T02:02:52;95666.22;;;16.80;38.01
70902;BME280;58548;47.210;8.618;2024-01-27T02:05:18;95669.09;;;16.85;38.18
70902;BME280;58548;47.210;8.618;2024-01-27T02:07:50;95686.69;;;16.99;38.25
70902;BME280;58548;47.210;8.618;2024-01-27T02:10:17;95684.28;;;16.98;38.42
70902;BME280;58548;47.210;8.618;2024-01-27T02:12:47;95663.00;;;16.84;38.22
70902;BME280;58548;47.210;8.618;2024-01-27T02:15:13;95670.47;;;16.81;37.96
70902;BME280;58548;47.210;8.618;2024-01-27T02:17:40;95698.81;;;16.94;38.06
70902;BME280;58548;47.210;8.618;2024-01-27T02:20:10;95699.66;;;16.94;37.51
70902;BME280;58548;47.210;8.618;2024-01-27T02:22:36;95686.13;;;16.82;37.58
70902;BME280;58548;47.210;8.618;2024-01-27T02:25:03;95697.50;;;16.83;37.50
70902;BME280;58548;47.210;8.618;2024-01-27T02:27:31;95706.66;;;16.87;37.64
70902;BME280;58548;47.210;8.618;2024-01-27T02:29:57;95694.22;;;16.81;37.62
70902;BME280;58548;47.210;8.618;2024-01-27T02:32:23;95689.47;;;16.69;37.61
70902;BME280;58548;47.210;8.618;2024-01-27T02:34:49;95694.38;;;16.72;38.03
70902;BME280;58548;47.210;8.618;2024-01-27T02:37:18;95710.25;;;16.79;38.29
70902;BME280;58548;47.210;8.618;2024-01-27T02:39:46;95720.19;;;16.77;38.18
70902;BME280;58548;47.210;8.618;2024-01-27T02:42:15;95726.25;;;16.78;38.26
70902;BME280;58548;47.210;8.618;2024-01-27T02:44:43;95718.91;;;16.73;38.27
70902;BME280;58548;47.210;8.618;2024-01-27T02:47:10;95707.28;;;16.67;37.94
70902;BME280;58548;47.210;8.618;2024-01-27T02:49:40;95725.38;;;16.70;37.95
70902;BME280;58548;47.210;8.618;2024-01-27T02:52:11;95712.75;;;16.66;37.53
70902;BME280;58548;47.210;8.618;2024-01-27T02:54:39;95720.50;;;16.67;37.60
70902;BME280;58548;47.210;8.618;2024-01-27T02:57:07;95707.47;;;16.66;37.34
70902;BME280;58548;47.210;8.618;2024-01-27T02:59:33;95700.00;;;16.48;37.01
70902;BME280;58548;47.210;8.618;2024-01-27T03:02:02;95702.81;;;16.46;37.37
70902;BME280;58548;47.210;8.618;2024-01-27T03:04:28;95683.25;;;16.19;37.05
70902;BME280;58548;47.210;8.618;2024-01-27T03:06:54;95698.69;;;16.22;37.34
70902;BME280;58548;47.210;8.618;2024-01-27T03:09:22;95682.19;;;15.98;37.09
70902;BME280;58548;47.210;8.618;2024-01-27T03:11:50;95707.25;;;16.09;37.49
70902;BME280;58548;47.210;8.618;2024-01-27T03:14:16;95713.16;;;15.96;37.03
70902;BME280;58548;47.210;8.618;2024-01-27T03:16:43;95709.91;;;15.94;37.72
70902;BME280;58548;47.210;8.618;2024-01-27T03:19:12;95692.53;;;15.85;37.61
70902;BME280;58548;47.210;8.618;2024-01-27T03:21:38;95680.66;;;15.74;37.58
70902;BME280;58548;47.210;8.618;2024-01-27T03:24:04;95680.38;;;15.68;37.66
70902;BME280;58548;47.210;8.618;2024-01-27T03:26:30;95688.72;;;15.72;38.17
70902;BME280;58548;47.210;8.618;2024-01-27T03:28:56;95710.97;;;15.85;37.80
70902;BME280;58548;47.210;8.618;2024-01-27T03:31:30;95698.34;;;15.80;38.05
70902;BME280;58548;47.210;8.618;2024-01-27T03:33:58;95682.81;;;15.70;38.18
70902;BME280;58548;47.210;8.618;2024-01-27T03:36:24;95696.34;;;15.82;38.00
70902;BME280;58548;47.210;8.618;2024-01-27T03:38:51;95701.75;;;15.89;37.28
70902;BME280;58548;47.210;8.618;2024-01-27T03:41:16;95690.63;;;15.78;37.60
70902;BME280;58548;47.210;8.618;2024-01-27T03:43:42;95677.72;;;15.53;37.62
70902;BME280;58548;47.210;8.618;2024-01-27T03:46:08;95704.88;;;15.54;37.28
70902;BME280;58548;47.210;8.618;2024-01-27T03:48:34;95704.31;;;15.44;38.07
70902;BME280;58548;47.210;8.618;2024-01-27T03:51:23;95728.03;;;15.59;38.02
70902;BME280;58548;47.210;8.618;2024-01-27T03:53:49;95722.13;;;15.57;37.80
70902;BME280;58548;47.210;8.618;2024-01-27T03:56:15;95716.94;;;15.48;37.53
70902;BME280;58548;47.210;8.618;2024-01-27T03:58:41;95737.56;;;15.60;37.96
70902;BME280;58548;47.210;8.618;2024-01-27T04:01:07;95697.03;;;15.31;37.93
70902;BME280;58548;47.210;8.618;2024-01-27T04:03:35;95707.50;;;15.39;38.21
70902;BME280;58548;47.210;8.618;2024-01-27T04:06:01;95737.13;;;15.56;38.23
70902;BME280;58548;47.210;8.618;2024-01-27T04:08:30;95698.69;;;15.32;38.06
70902;BME280;58548;47.210;8.618;2024-01-27T04:10:58;95713.69;;;15.46;37.51
70902;BME280;58548;47.210;8.618;2024-01-27T04:13:26;95671.16;;;15.19;37.39
70902;BME280;58548;47.210;8.618;2024-01-27T04:15:52;95718.50;;;15.58;37.31
70902;BME280;58548;47.210;8.618;2024-01-27T04:18:19;95724.75;;;15.57;37.74
70902;BME280;58548;47.210;8.618;2024-01-27T04:20:45;95736.66;;;15.67;37.57
70902;BME280;58548;47.210;8.618;2024-01-27T04:23:11;95736.22;;;15.64;37.34
70902;BME280;58548;47.210;8.618;2024-01-27T04:25:37;95695.69;;;15.35;37.74
70902;BME280;58548;47.210;8.618;2024-01-27T04:28:03;95749.03;;;15.67;37.54
70902;BME280;58548;47.210;8.618;2024-01-27T04:30:29;95712.94;;;15.52;37.34
70902;BME280;58548;47.210;8.618;2024-01-27T04:32:55;95748.00;;;15.68;37.10
70902;BME280;58548;47.210;8.618;2024-01-27T04:35:21;95737.22;;;15.63;37.41
70902;BME280;58548;47.210;8.618;2024-01-27T04:37:47;95757.38;;;15.71;37.13
70902;BME280;58548;47.210;8.618;2024-01-27T04:40:13;95738.84;;;15.64;36.94
70902;BME280;58548;47.210;8.618;2024-01-27T04:42:39;95743.38;;;15.70;36.69
70902;BME280;58548;47.210;8.618;2024-01-27T04:45:05;95713.31;;;15.49;37.05
70902;BME280;58548;47.210;8.618;2024-01-27T04:47:34;95752.28;;;15.69;36.74
70902;BME280;58548;47.210;8.618;2024-01-27T04:50:03;95750.84;;;15.66;37.10
70902;BME280;58548;47.210;8.618;2024-01-27T04:52:29;95760.19;;;15.69;37.25
70902;BME280;58548;47.210;8.618;2024-01-27T04:54:57;95752.03;;;15.64;37.13
70902;BME280;58548;47.210;8.618;2024-01-27T04:57:24;95746.28;;;15.60;36.76
70902;BME280;58548;47.210;8.618;2024-01-27T04:59:49;95759.28;;;15.62;36.18
70902;BME280;58548;47.210;8.618;2024-01-27T05:02:15;95754.19;;;15.60;36.63
70902;BME280;58548;47.210;8.618;2024-01-27T05:04:43;95757.66;;;15.61;36.73
70902;BME280;58548;47.210;8.618;2024-01-27T05:07:09;95721.00;;;15.36;36.96
70902;BME280;58548;47.210;8.618;2024-01-27T05:09:35;95704.03;;;15.23;37.06
70902;BME280;58548;47.210;8.618;2024-01-27T05:12:01;95756.00;;;15.60;37.00
70902;BME280;58548;47.210;8.618;2024-01-27T05:14:32;95763.34;;;15.64;37.03
70902;BME280;58548;47.210;8.618;2024-01-27T05:16:58;95741.56;;;15.56;37.14
70902;BME280;58548;47.210;8.618;2024-01-27T05:19:24;95717.19;;;15.38;36.97
70902;BME280;58548;47.210;8.618;2024-01-27T05:21:49;95765.44;;;15.69;37.07
70902;BME280;58548;47.210;8.618;2024-01-27T05:24:17;95753.19;;;15.61;37.21
70902;BME280;58548;47.210;8.618;2024-01-27T05:26:43;95760.38;;;15.67;37.54
70902;BME280;58548;47.210;8.618;2024-01-27T05:29:09;95737.28;;;15.55;37.11
70902;BME280;58548;47.210;8.618;2024-01-27T05:31:37;95733.66;;;15.56;36.62
70902;BME280;58548;47.210;8.618;2024-01-27T05:34:06;95748.00;;;15.68;36.63
70902;BME280;58548;47.210;8.618;2024-01-27T05:36:32;95745.56;;;15.66;36.65
70902;BME280;58548;47.210;8.618;2024-01-27T05:39:00;95758.94;;;15.65;36.83
70902;BME280;58548;47.210;8.618;2024-01-27T05:41:26;95766.34;;;15.61;36.83
70902;BME280;58548;47.210;8.618;2024-01-27T05:43:57;95760.00;;;15.56;36.91
70902;BME280;58548;47.210;8.618;2024-01-27T05:46:24;95762.34;;;15.50;36.45
70902;BME280;58548;47.210;8.618;2024-01-27T05:48:50;95756.91;;;15.52;36.64
70902;BME280;58548;47.210;8.618;2024-01-27T05:51:22;95751.44;;;15.53;37.17
70902;BME280;58548;47.210;8.618;2024-01-27T05:53:49;95758.81;;;15.58;37.55
70902;BME280;58548;47.210;8.618;2024-01-27T05:56:17;95743.25;;;15.48;36.90
70902;BME280;58548;47.210;8.618;2024-01-27T05:58:46;95753.09;;;15.55;36.65
70902;BME280;58548;47.210;8.618;2024-01-27T06:01:12;95761.63;;;15.57;36.51
70902;BME280;58548;47.210;8.618;2024-01-27T06:03:41;95762.44;;;15.57;36.28
70902;BME280;58548;47.210;8.618;2024-01-27T06:06:08;95751.34;;;15.47;36.46
70902;BME280;58548;47.210;8.618;2024-01-27T06:08:34;95767.59;;;15.50;37.08
70902;BME280;58548;47.210;8.618;2024-01-27T06:11:00;95762.25;;;15.44;36.57
70902;BME280;58548;47.210;8.618;2024-01-27T06:13:28;95752.31;;;15.31;36.60
70902;BME280;58548;47.210;8.618;2024-01-27T06:15:54;95742.97;;;15.28;36.54
70902;BME280;58548;47.210;8.618;2024-01-27T06:18:23;95758.22;;;15.33;36.01
70902;BME280;58548;47.210;8.618;2024-01-27T06:20:50;95746.84;;;15.17;36.25
70902;BME280;58548;47.210;8.618;2024-01-27T06:23:18;95757.25;;;15.11;36.41
70902;BME280;58548;47.210;8.618;2024-01-27T06:25:44;95754.22;;;14.99;36.22
70902;BME280;58548;47.210;8.618;2024-01-27T06:28:10;95733.69;;;14.62;35.90
70902;BME280;58548;47.210;8.618;2024-01-27T06:30:35;95763.25;;;14.73;36.32
70902;BME280;58548;47.210;8.618;2024-01-27T06:33:01;95766.75;;;14.65;36.41
70902;BME280;58548;47.210;8.618;2024-01-27T06:35:28;95733.22;;;14.36;36.19
70902;BME280;58548;47.210;8.618;2024-01-27T06:37:57;95757.16;;;14.41;36.43
70902;BME280;58548;47.210;8.618;2024-01-27T06:40:23;95758.22;;;14.23;36.60
70902;BME280;58548;47.210;8.618;2024-01-27T06:42:51;95764.53;;;14.14;36.24
70902;BME280;58548;47.210;8.618;2024-01-27T06:45:20;95732.25;;;13.88;36.69
70902;BME280;58548;47.210;8.618;2024-01-27T06:47:48;95759.16;;;13.91;36.95
70902;BME280;58548;47.210;8.618;2024-01-27T06:50:14;95734.13;;;13.63;36.66
70902;BME280;58548;47.210;8.618;2024-01-27T06:52:42;95760.03;;;13.75;36.77
70902;BME280;58548;47.210;8.618;2024-01-27T06:55:08;95753.81;;;13.59;36.47
70902;BME280;58548;47.210;8.618;2024-01-27T06:57:36;95719.09;;;13.24;36.84
70902;BME280;58548;47.210;8.618;2024-01-27T07:00:02;95755.16;;;13.30;37.44
70902;BME280;58548;47.210;8.618;2024-01-27T07:02:28;95771.22;;;13.27;37.62
70902;BME280;58548;47.210;8.618;2024-01-27T07:04:55;95773.84;;;13.19;37.31
70902;BME280;58548;47.210;8.618;2024-01-27T07:07:26;95766.00;;;13.10;37.53
70902;BME280;58548;47.210;8.618;2024-01-27T07:09:55;95771.22;;;13.02;37.38
70902;BME280;58548;47.210;8.618;2024-01-27T07:12:23;95764.31;;;12.93;37.69
70902;BME280;58548;47.210;8.618;2024-01-27T07:14:49;95747.59;;;12.86;37.73
70902;BME280;58548;47.210;8.618;2024-01-27T07:17:17;95758.91;;;12.86;38.18
70902;BME280;58548;47.210;8.618;2024-01-27T07:19:45;95753.50;;;12.79;38.09
70902;BME280;58548;47.210;8.618;2024-01-27T07:22:11;95718.41;;;12.56;38.05
70902;BME280;58548;47.210;8.618;2024-01-27T07:24:37;95766.94;;;12.85;38.38
70902;BME280;58548;47.210;8.618;2024-01-27T07:27:03;95737.75;;;12.63;38.13
70902;BME280;58548;47.210;8.618;2024-01-27T07:29:31;95780.19;;;12.83;38.31
70902;BME280;58548;47.210;8.618;2024-01-27T07:31:57;95756.44;;;12.76;38.28
70902;BME280;58548;47.210;8.618;2024-01-27T07:34:25;95763.31;;;12.69;38.07
70902;BME280;58548;47.210;8.618;2024-01-27T07:36:51;95753.31;;;12.56;38.50
70902;BME280;58548;47.210;8.618;2024-01-27T07:39:18;95745.75;;;12.61;39.12
70902;BME280;58548;47.210;8.618;2024-01-27T07:41:46;95754.16;;;12.81;39.52
70902;BME280;58548;47.210;8.618;2024-01-27T07:44:14;95775.81;;;13.33;41.15
70902;BME280;58548;47.210;8.618;2024-01-27T07:46:41;95753.63;;;13.85;41.49
70902;BME280;58548;47.210;8.618;2024-01-27T07:49:08;95771.00;;;14.66;39.83
70902;BME280;58548;47.210;8.618;2024-01-27T07:51:34;95788.66;;;15.50;38.30
70902;BME280;58548;47.210;8.618;2024-01-27T07:54:01;95781.59;;;16.19;36.98
70902;BME280;58548;47.210;8.618;2024-01-27T07:56:27;95786.00;;;16.85;35.78
70902;BME280;58548;47.210;8.618;2024-01-27T07:58:56;95740.47;;;17.20;34.65
70902;BME280;58548;47.210;8.618;2024-01-27T08:01:22;95751.63;;;18.01;34.02
70902;BME280;58548;47.210;8.618;2024-01-27T08:03:50;95774.34;;;18.86;32.41
70902;BME280;58548;47.210;8.618;2024-01-27T08:06:26;95772.84;;;19.58;31.44
70902;BME280;58548;47.210;8.618;2024-01-27T08:08:52;95769.44;;;20.37;31.48
70902;BME280;58548;47.210;8.618;2024-01-27T08:11:18;95760.16;;;21.05;29.87
70902;BME280;58548;47.210;8.618;2024-01-27T08:13:44;95784.59;;;21.97;28.63
70902;BME280;58548;47.210;8.618;2024-01-27T08:16:10;95753.88;;;22.57;26.70
70902;BME280;58548;47.210;8.618;2024-01-27T08:18:42;95748.91;;;23.22;26.07
70902;BME280;58548;47.210;8.618;2024-01-27T08:21:12;95765.59;;;24.07;25.34
70902;BME280;58548;47.210;8.618;2024-01-27T08:23:39;95771.94;;;24.82;23.90
70902;BME280;58548;47.210;8.618;2024-01-27T08:26:05;95758.34;;;25.30;23.08
70902;BME280;58548;47.210;8.618;2024-01-27T08:28:31;95746.75;;;25.93;22.46
70902;BME280;58548;47.210;8.618;2024-01-27T08:30:57;95778.03;;;26.71;21.63
70902;BME280;58548;47.210;8.618;2024-01-27T08:33:25;95752.69;;;27.06;20.89
70902;BME280;58548;47.210;8.618;2024-01-27T08:35:51;95737.47;;;27.44;19.50
70902;BME280;58548;47.210;8.618;2024-01-27T08:38:19;95741.81;;;27.88;18.69
70902;BME280;58548;47.210;8.618;2024-01-27T08:40:45;95769.50;;;28.37;18.32
70902;BME280;58548;47.210;8.618;2024-01-27T08:43:13;95777.16;;;28.66;18.58
70902;BME280;58548;47.210;8.618;2024-01-27T08:45:42;95779.66;;;28.83;17.97
70902;BME280;58548;47.210;8.618;2024-01-27T08:48:07;95768.91;;;28.83;17.69
70902;BME280;58548;47.210;8.618;2024-01-27T08:50:35;95768.59;;;28.69;17.89
70902;BME280;58548;47.210;8.618;2024-01-27T08:53:01;95781.28;;;28.79;18.06
70902;BME280;58548;47.210;8.618;2024-01-27T08:55:27;95766.63;;;28.49;17.49
70902;BME280;58548;47.210;8.618;2024-01-27T08:57:56;95764.88;;;28.17;17.77
70902;BME280;58548;47.210;8.618;2024-01-27T09:00:23;95778.84;;;27.86;17.85
70902;BME280;58548;47.210;8.618;2024-01-27T09:02:55;95785.16;;;27.64;18.52
70902;BME280;58548;47.210;8.618;2024-01-27T09:05:21;95771.72;;;27.32;18.48
70902;BME280;58548;47.210;8.618;2024-01-27T09:07:49;95779.00;;;27.09;19.64
70902;BME280;58548;47.210;8.618;2024-01-27T09:10:15;95784.91;;;26.84;19.50
70902;BME280;58548;47.210;8.618;2024-01-27T09:12:42;95791.16;;;26.89;19.26
70902;BME280;58548;47.210;8.618;2024-01-27T09:15:10;95778.22;;;26.64;19.75
70902;BME280;58548;47.210;8.618;2024-01-27T09:17:38;95792.44;;;26.64;19.45
70902;BME280;58548;47.210;8.618;2024-01-27T09:20:08;95774.59;;;26.53;19.82
70902;BME280;58548;47.210;8.618;2024-01-27T09:22:37;95775.84;;;26.45;18.71
70902;BME280;58548;47.210;8.618;2024-01-27T09:25:03;95773.94;;;26.41;18.74
70902;BME280;58548;47.210;8.618;2024-01-27T09:27:29;95764.88;;;26.25;19.97
70902;BME280;58548;47.210;8.618;2024-01-27T09:29:55;95789.16;;;26.40;19.33
70902;BME280;58548;47.210;8.618;2024-01-27T09:32:21;95790.78;;;26.41;18.81
70902;BME280;58548;47.210;8.618;2024-01-27T09:34:50;95772.81;;;26.37;19.08
70902;BME280;58548;47.210;8.618;2024-01-27T09:37:19;95781.47;;;26.44;18.79
70902;BME280;58548;47.210;8.618;2024-01-27T09:39:47;95778.03;;;26.71;19.82
70902;BME280;58548;47.210;8.618;2024-01-27T09:42:16;95762.88;;;26.82;19.47
70902;BME280;58548;47.210;8.618;2024-01-27T09:44:48;95789.31;;;26.95;18.21
70902;BME280;58548;47.210;8.618;2024-01-27T09:47:15;95781.84;;;26.53;17.90
70902;BME280;58548;47.210;8.618;2024-01-27T09:49:42;95752.66;;;26.12;19.07
70902;BME280;58548;47.210;8.618;2024-01-27T09:52:08;95777.72;;;26.06;18.54
70902;BME280;58548;47.210;8.618;2024-01-27T09:54:35;95765.19;;;25.55;19.74
70902;BME280;58548;47.210;8.618;2024-01-27T09:57:02;95776.91;;;25.20;20.11
70902;BME280;58548;47.210;8.618;2024-01-27T09:59:29;95743.41;;;24.71;20.70
70902;BME280;58548;47.210;8.618;2024-01-27T10:01:56;95776.94;;;24.79;20.76
70902;BME280;58548;47.210;8.618;2024-01-27T10:04:25;95753.88;;;24.49;21.15
70902;BME280;58548;47.210;8.618;2024-01-27T10:06:57;95746.25;;;24.52;21.56
70902;BME280;58548;47.210;8.618;2024-01-27T10:09:26;95752.13;;;24.66;22.14
70902;BME280;58548;47.210;8.618;2024-01-27T10:11:56;95735.19;;;24.49;22.10
70902;BME280;58548;47.210;8.618;2024-01-27T10:14:23;95752.72;;;24.57;21.82
70902;BME280;58548;47.210;8.618;2024-01-27T10:16:49;95741.31;;;24.73;21.61
70902;BME280;58548;47.210;8.618;2024-01-27T10:19:16;95734.72;;;24.93;20.94
70902;BME280;58548;47.210;8.618;2024-01-27T10:22:02;95752.22;;;24.60;21.55
70902;BME280;58548;47.210;8.618;2024-01-27T10:24:29;95756.44;;;24.56;22.07
70902;BME280;58548;47.210;8.618;2024-01-27T10:27:01;95762.19;;;24.35;22.53
70902;BME280;58548;47.210;8.618;2024-01-27T10:29:30;95754.06;;;24.30;23.17
70902;BME280;58548;47.210;8.618;2024-01-27T10:32:08;95757.34;;;24.08;22.41
70902;BME280;58548;47.210;8.618;2024-01-27T10:34:37;95747.34;;;23.80;22.47
70902;BME280;58548;47.210;8.618;2024-01-27T10:37:04;95761.53;;;23.81;22.85
70902;BME280;58548;47.210;8.618;2024-01-27T10:39:30;95760.28;;;23.29;22.99
70902;BME280;58548;47.210;8.618;2024-01-27T10:42:02;95735.94;;;22.83;23.44
70902;BME280;58548;47.210;8.618;2024-01-27T10:44:31;95684.09;;;22.36;24.14
70902;BME280;58548;47.210;8.618;2024-01-27T10:47:02;95680.63;;;22.17;23.97
70902;BME280;58548;47.210;8.618;2024-01-27T10:49:34;95734.88;;;22.35;24.74
70902;BME280;58548;47.210;8.618;2024-01-27T10:52:10;95735.03;;;22.21;24.54
70902;BME280;58548;47.210;8.618;2024-01-27T10:54:40;95724.81;;;21.99;25.19
70902;BME280;58548;47.210;8.618;2024-01-27T10:57:09;95743.06;;;21.77;25.41
70902;BME280;58548;47.210;8.618;2024-01-27T10:59:40;95713.66;;;21.47;25.91
70902;BME280;58548;47.210;8.618;2024-01-27T11:02:13;95692.78;;;21.50;25.74
70902;BME280;58548;47.210;8.618;2024-01-27T11:04:42;95714.53;;;21.84;26.16
70902;BME280;58548;47.210;8.618;2024-01-27T11:07:09;95716.50;;;22.14;25.91
70902;BME280;58548;47.210;8.618;2024-01-27T11:09:37;95706.91;;;22.63;25.38
70902;BME280;58548;47.210;8.618;2024-01-27T11:12:05;95725.34;;;23.07;24.50
70902;BME280;58548;47.210;8.618;2024-01-27T11:14:33;95723.31;;;23.32;24.77
70902;BME280;58548;47.210;8.618;2024-01-27T11:17:01;95697.50;;;23.57;24.14
70902;BME280;58548;47.210;8.618;2024-01-27T11:19:27;95695.03;;;23.91;23.36
70902;BME280;58548;47.210;8.618;2024-01-27T11:22:05;95678.91;;;24.09;23.03
70902;BME280;58548;47.210;8.618;2024-01-27T11:24:31;95609.44;;;23.92;23.62
70902;BME280;58548;47.210;8.618;2024-01-27T11:27:05;95689.41;;;24.98;22.46
70902;BME280;58548;47.210;8.618;2024-01-27T11:29:32;95700.81;;;25.79;23.15
70902;BME280;58548;47.210;8.618;2024-01-27T11:32:02;95689.63;;;26.48;21.57
70902;BME280;58548;47.210;8.618;2024-01-27T11:34:41;95695.00;;;27.31;20.78
70902;BME280;58548;47.210;8.618;2024-01-27T11:37:14;95703.47;;;27.93;19.36
70902;BME280;58548;47.210;8.618;2024-01-27T11:39:42;95698.88;;;28.36;19.36
70902;BME280;58548;47.210;8.618;2024-01-27T11:42:10;95672.13;;;28.78;19.02
70902;BME280;58548;47.210;8.618;2024-01-27T11:44:41;95671.34;;;29.29;18.26
70902;BME280;58548;47.210;8.618;2024-01-27T11:47:18;95692.25;;;29.99;18.31
70902;BME280;58548;47.210;8.618;2024-01-27T11:49:57;95703.06;;;30.54;17.48
70902;BME280;58548;47.210;8.618;2024-01-27T11:52:30;95694.44;;;30.68;16.59
70902;BME280;58548;47.210;8.618;2024-01-27T11:55:01;95699.72;;;30.83;16.14
70902;BME280;58548;47.210;8.618;2024-01-27T11:57:29;95693.78;;;30.81;15.88
70902;BME280;58548;47.210;8.618;2024-01-27T11:59:56;95675.63;;;30.97;16.53
70902;BME280;58548;47.210;8.618;2024-01-27T12:02:24;95684.84;;;31.31;15.60
70902;BME280;58548;47.210;8.618;2024-01-27T12:04:51;95659.84;;;31.50;15.23
70902;BME280;58548;47.210;8.618;2024-01-27T12:07:19;95688.31;;;31.91;15.28
70902;BME280;58548;47.210;8.618;2024-01-27T12:09:45;95676.69;;;31.95;15.66
70902;BME280;58548;47.210;8.618;2024-01-27T12:12:13;95689.09;;;31.96;14.90
70902;BME280;58548;47.210;8.618;2024-01-27T12:14:50;95687.94;;;32.02;14.94
70902;BME280;58548;47.210;8.618;2024-01-27T12:17:21;95680.41;;;32.24;14.72
70902;BME280;58548;47.210;8.618;2024-01-27T12:19:52;95682.88;;;32.44;14.44
70902;BME280;58548;47.210;8.618;2024-01-27T12:22:30;95680.41;;;32.67;14.89
70902;BME280;58548;47.210;8.618;2024-01-27T12:25:08;95668.06;;;32.80;14.27
70902;BME280;58548;47.210;8.618;2024-01-27T12:27:35;95668.75;;;33.05;13.96
70902;BME280;58548;47.210;8.618;2024-01-27T12:30:03;95666.03;;;33.24;14.28
70902;BME280;58548;47.210;8.618;2024-01-27T12:32:32;95682.34;;;33.38;13.51
70902;BME280;58548;47.210;8.618;2024-01-27T12:35:07;95647.47;;;33.36;14.20
70902;BME280;58548;47.210;8.618;2024-01-27T12:37:34;95642.47;;;33.58;13.80
70902;BME280;58548;47.210;8.618;2024-01-27T12:40:00;95662.13;;;33.63;14.07
70902;BME280;58548;47.210;8.618;2024-01-27T12:42:26;95673.81;;;33.78;13.59
70902;BME280;58548;47.210;8.618;2024-01-27T12:44:52;95664.94;;;33.72;13.76
70902;BME280;58548;47.210;8.618;2024-01-27T12:47:17;95633.16;;;33.31;13.92
70902;BME280;58548;47.210;8.618;2024-01-27T12:49:46;95622.78;;;33.38;13.34
70902;BME280;58548;47.210;8.618;2024-01-27T12:52:21;95651.72;;;33.85;14.21
70902;BME280;58548;47.210;8.618;2024-01-27T12:54:52;95652.38;;;34.09;13.37
70902;BME280;58548;47.210;8.618;2024-01-27T12:57:19;95636.28;;;34.13;13.30
70902;BME280;58548;47.210;8.618;2024-01-27T12:59:45;95652.75;;;34.17;12.73
70902;BME280;58548;47.210;8.618;2024-01-27T13:02:13;95648.31;;;33.93;13.37